AAL1075 KIAD-KORF
Flight info
| Callsign | AAL1075 |
|---|---|
| Flight time | 0h 40m |
| Altitude | 20000 |
| Route | JDUBB4 JDUBB BNTLY/N0392F190 WAIKS |
| Aircraft | A320/M-SDE3FGHIRWY/LB1 |
Departure
| Time | 2026-04-22 01:05 |
|---|---|
| Airport | Washington Dulles International Airport (KIAD) |
Arrival
| Time | 2026-04-22 01:45 |
|---|---|
| Airport | Norfolk International Airport (KORF) |
| Time | Latitude | Longitude | Altitude | Speed | Heading |
|---|---|---|---|---|---|
| 2026-04-22 00:39 | 38.94813 | -77.44928 | 301 ft | 0 kts | 15° |
| 2026-04-22 00:53 | 38.94812 | -77.44929 | 303 ft | 2 kts | 15° |
| 2026-04-22 00:53 | 38.94787 | -77.44938 | 304 ft | 4 kts | 15° |
| 2026-04-22 00:53 | 38.94761 | -77.44947 | 300 ft | 4 kts | 15° |
| 2026-04-22 00:53 | 38.94740 | -77.44955 | 302 ft | 4 kts | 353° |
| 2026-04-22 00:54 | 38.94728 | -77.44941 | 301 ft | 4 kts | 276° |
| 2026-04-22 00:54 | 38.94727 | -77.44911 | 300 ft | 1 kts | 271° |
| 2026-04-22 00:54 | 38.94727 | -77.44910 | 300 ft | 1 kts | 271° |
| 2026-04-22 00:56 | 38.94727 | -77.44914 | 300 ft | 2 kts | 271° |
| 2026-04-22 00:57 | 38.94727 | -77.44959 | 300 ft | 7 kts | 270° |
| 2026-04-22 00:57 | 38.94728 | -77.45059 | 300 ft | 14 kts | 270° |
| 2026-04-22 00:57 | 38.94728 | -77.45194 | 300 ft | 16 kts | 270° |
| 2026-04-22 00:57 | 38.94731 | -77.45327 | 300 ft | 13 kts | 268° |
| 2026-04-22 00:58 | 38.94733 | -77.45436 | 300 ft | 12 kts | 270° |
| 2026-04-22 00:58 | 38.94732 | -77.45507 | 300 ft | 0 kts | 267° |
| 2026-04-22 00:59 | 38.94733 | -77.45509 | 300 ft | 1 kts | 271° |
| 2026-04-22 00:59 | 38.94733 | -77.45527 | 300 ft | 3 kts | 270° |
| 2026-04-22 00:59 | 38.94728 | -77.45571 | 300 ft | 6 kts | 247° |
| 2026-04-22 00:59 | 38.94688 | -77.45602 | 301 ft | 8 kts | 195° |
| 2026-04-22 01:00 | 38.94611 | -77.45610 | 304 ft | 13 kts | 181° |
| 2026-04-22 01:00 | 38.94512 | -77.45611 | 300 ft | 16 kts | 180° |
| 2026-04-22 01:00 | 38.94394 | -77.45612 | 300 ft | 18 kts | 181° |
| 2026-04-22 01:00 | 38.94259 | -77.45613 | 300 ft | 21 kts | 180° |
| 2026-04-22 01:01 | 38.94126 | -77.45616 | 300 ft | 16 kts | 180° |
| 2026-04-22 01:01 | 38.94019 | -77.45616 | 300 ft | 16 kts | 179° |
| 2026-04-22 01:01 | 38.93908 | -77.45616 | 300 ft | 16 kts | 182° |
| 2026-04-22 01:01 | 38.93793 | -77.45619 | 300 ft | 16 kts | 179° |
| 2026-04-22 01:02 | 38.93698 | -77.45602 | 302 ft | 14 kts | 145° |
| 2026-04-22 01:02 | 38.93635 | -77.45512 | 300 ft | 12 kts | 136° |
| 2026-04-22 01:02 | 38.93552 | -77.45514 | 303 ft | 14 kts | 202° |
| 2026-04-22 01:02 | 38.93467 | -77.45555 | 301 ft | 7 kts | 199° |
| 2026-04-22 01:03 | 38.93455 | -77.45560 | 299 ft | 4 kts | 199° |
| 2026-04-22 01:03 | 38.93414 | -77.45583 | 298 ft | 9 kts | 208° |
| 2026-04-22 01:03 | 38.93381 | -77.45661 | 299 ft | 10 kts | 279° |
| 2026-04-22 01:03 | 38.93386 | -77.45683 | 300 ft | 0 kts | 291° |
| 2026-04-22 01:04 | 38.93391 | -77.45700 | 302 ft | 10 kts | 291° |
| 2026-04-22 01:04 | 38.93511 | -77.46113 | 302 ft | 86 kts | 290° |
| 2026-04-22 01:04 | 38.93792 | -77.47073 | 300 ft | 142 kts | 290° |
| 2026-04-22 01:04 | 38.94173 | -77.48335 | 642 ft | 152 kts | 292° |
| 2026-04-22 01:05 | 38.94586 | -77.49596 | 1265 ft | 151 kts | 288° |
| 2026-04-22 01:05 | 38.95055 | -77.50820 | 1811 ft | 155 kts | 289° |
| 2026-04-22 01:05 | 38.95600 | -77.52097 | 2179 ft | 173 kts | 290° |
| 2026-04-22 01:05 | 38.96219 | -77.53540 | 2453 ft | 196 kts | 290° |
| 2026-04-22 01:06 | 38.96904 | -77.55178 | 2749 ft | 221 kts | 290° |
| 2026-04-22 01:06 | 38.97637 | -77.57002 | 3170 ft | 244 kts | 288° |
| 2026-04-22 01:06 | 38.97988 | -77.59170 | 3866 ft | 246 kts | 262° |
| 2026-04-22 01:06 | 38.97513 | -77.61256 | 4824 ft | 247 kts | 240° |
| 2026-04-22 01:07 | 38.96280 | -77.62844 | 5727 ft | 260 kts | 214° |
| 2026-04-22 01:07 | 38.94496 | -77.63445 | 6622 ft | 279 kts | 185° |
| 2026-04-22 01:07 | 38.92530 | -77.63252 | 7445 ft | 286 kts | 180° |
| 2026-04-22 01:07 | 38.90520 | -77.62993 | 8213 ft | 294 kts | 180° |
| 2026-04-22 01:08 | 38.88457 | -77.62716 | 8970 ft | 302 kts | 180° |
| 2026-04-22 01:08 | 38.86336 | -77.62435 | 9732 ft | 310 kts | 180° |
| 2026-04-22 01:08 | 38.84149 | -77.62153 | 10283 ft | 326 kts | 180° |
| 2026-04-22 01:08 | 38.81809 | -77.61866 | 10532 ft | 349 kts | 180° |
| 2026-04-22 01:09 | 38.79305 | -77.61563 | 10715 ft | 373 kts | 179° |
| 2026-04-22 01:09 | 38.76672 | -77.61237 | 11159 ft | 385 kts | 179° |
| 2026-04-22 01:09 | 38.73993 | -77.60892 | 11821 ft | 390 kts | 178° |
| 2026-04-22 01:09 | 38.71280 | -77.60543 | 12492 ft | 394 kts | 178° |
| 2026-04-22 01:10 | 38.68532 | -77.60195 | 13173 ft | 398 kts | 178° |
| 2026-04-22 01:10 | 38.65797 | -77.59853 | 13857 ft | 402 kts | 178° |
| 2026-04-22 01:10 | 38.62963 | -77.59504 | 14497 ft | 405 kts | 178° |
| 2026-04-22 01:10 | 38.60148 | -77.59161 | 15115 ft | 409 kts | 178° |
| 2026-04-22 01:11 | 38.57298 | -77.58812 | 15713 ft | 412 kts | 177° |
| 2026-04-22 01:11 | 38.54479 | -77.58463 | 16335 ft | 415 kts | 177° |
| 2026-04-22 01:11 | 38.51550 | -77.58101 | 16979 ft | 418 kts | 177° |
| 2026-04-22 01:11 | 38.48649 | -77.57742 | 17609 ft | 421 kts | 177° |
| 2026-04-22 01:12 | 38.45765 | -77.57387 | 18237 ft | 423 kts | 178° |
| 2026-04-22 01:12 | 38.42826 | -77.57376 | 18852 ft | 423 kts | 188° |
| 2026-04-22 01:12 | 38.39929 | -77.57996 | 19442 ft | 421 kts | 198° |
| 2026-04-22 01:12 | 38.37172 | -77.59213 | 19996 ft | 419 kts | 208° |
| 2026-04-22 01:13 | 38.34629 | -77.60945 | 20182 ft | 414 kts | 215° |
| 2026-04-22 01:13 | 38.32006 | -77.62597 | 20242 ft | 431 kts | 204° |
| 2026-04-22 01:13 | 38.29031 | -77.63567 | 20244 ft | 452 kts | 192° |
| 2026-04-22 01:13 | 38.25843 | -77.63847 | 20243 ft | 465 kts | 182° |
| 2026-04-22 01:14 | 38.22599 | -77.63488 | 20229 ft | 470 kts | 173° |
| 2026-04-22 01:14 | 38.19365 | -77.62838 | 20243 ft | 471 kts | 173° |
| 2026-04-22 01:14 | 38.16128 | -77.62210 | 20245 ft | 471 kts | 174° |
| 2026-04-22 01:14 | 38.12888 | -77.61590 | 20243 ft | 471 kts | 174° |
| 2026-04-22 01:15 | 38.09654 | -77.60972 | 20245 ft | 471 kts | 174° |
| 2026-04-22 01:15 | 38.06426 | -77.60260 | 20247 ft | 472 kts | 169° |
| 2026-04-22 01:15 | 38.03280 | -77.59007 | 20263 ft | 475 kts | 160° |
| 2026-04-22 01:15 | 38.00230 | -77.57367 | 20252 ft | 477 kts | 158° |
| 2026-04-22 01:16 | 37.97175 | -77.55717 | 20246 ft | 477 kts | 159° |
| 2026-04-22 01:16 | 37.94116 | -77.54070 | 20254 ft | 477 kts | 159° |
| 2026-04-22 01:16 | 37.91060 | -77.52431 | 20257 ft | 477 kts | 159° |
| 2026-04-22 01:16 | 37.87998 | -77.50793 | 20259 ft | 477 kts | 159° |
| 2026-04-22 01:17 | 37.84938 | -77.49156 | 20256 ft | 478 kts | 159° |
| 2026-04-22 01:17 | 37.81878 | -77.47518 | 20257 ft | 477 kts | 159° |
| 2026-04-22 01:17 | 37.78822 | -77.45882 | 20258 ft | 477 kts | 159° |
| 2026-04-22 01:17 | 37.75760 | -77.44245 | 20258 ft | 477 kts | 159° |
| 2026-04-22 01:18 | 37.72702 | -77.42615 | 20258 ft | 477 kts | 159° |
| 2026-04-22 01:18 | 37.69642 | -77.40985 | 20257 ft | 477 kts | 159° |
| 2026-04-22 01:18 | 37.66588 | -77.39359 | 20257 ft | 477 kts | 159° |
| 2026-04-22 01:18 | 37.63531 | -77.37731 | 20256 ft | 477 kts | 159° |
| 2026-04-22 01:19 | 37.60477 | -77.36106 | 20257 ft | 477 kts | 159° |
| 2026-04-22 01:19 | 37.57428 | -77.34482 | 20256 ft | 477 kts | 159° |
| 2026-04-22 01:19 | 37.54365 | -77.32854 | 20255 ft | 476 kts | 159° |
| 2026-04-22 01:19 | 37.51314 | -77.31232 | 20255 ft | 476 kts | 159° |
| 2026-04-22 01:20 | 37.48257 | -77.29609 | 20240 ft | 477 kts | 159° |
| 2026-04-22 01:20 | 37.45200 | -77.27990 | 20244 ft | 477 kts | 159° |
| 2026-04-22 01:20 | 37.42139 | -77.26376 | 20246 ft | 477 kts | 159° |
| 2026-04-22 01:20 | 37.39071 | -77.24761 | 20251 ft | 478 kts | 159° |
| 2026-04-22 01:21 | 37.36005 | -77.23148 | 20253 ft | 478 kts | 159° |
| 2026-04-22 01:21 | 37.32943 | -77.21533 | 20258 ft | 479 kts | 159° |
| 2026-04-22 01:21 | 37.29863 | -77.19908 | 20258 ft | 479 kts | 159° |
| 2026-04-22 01:21 | 37.26792 | -77.18289 | 20258 ft | 479 kts | 159° |
| 2026-04-22 01:22 | 37.23713 | -77.16671 | 20247 ft | 479 kts | 159° |
| 2026-04-22 01:22 | 37.20635 | -77.15054 | 20256 ft | 480 kts | 159° |
| 2026-04-22 01:22 | 37.17559 | -77.13436 | 20193 ft | 476 kts | 159° |
| 2026-04-22 01:22 | 37.14560 | -77.11858 | 19613 ft | 457 kts | 159° |
| 2026-04-22 01:23 | 37.11634 | -77.10322 | 19046 ft | 455 kts | 159° |
| 2026-04-22 01:23 | 37.08725 | -77.08800 | 18471 ft | 451 kts | 159° |
| 2026-04-22 01:23 | 37.05837 | -77.07293 | 17824 ft | 447 kts | 159° |
| 2026-04-22 01:23 | 37.02984 | -77.05795 | 17192 ft | 443 kts | 159° |
| 2026-04-22 01:24 | 37.00158 | -77.04301 | 16483 ft | 438 kts | 159° |
| 2026-04-22 01:24 | 36.97361 | -77.02824 | 15802 ft | 434 kts | 158° |
| 2026-04-22 01:24 | 36.94591 | -77.01373 | 15138 ft | 429 kts | 158° |
| 2026-04-22 01:24 | 36.91844 | -76.99949 | 14486 ft | 425 kts | 158° |
| 2026-04-22 01:25 | 36.89120 | -76.98553 | 13813 ft | 421 kts | 158° |
| 2026-04-22 01:25 | 36.86416 | -76.97175 | 13101 ft | 418 kts | 158° |
| 2026-04-22 01:25 | 36.83729 | -76.95808 | 12439 ft | 415 kts | 158° |
| 2026-04-22 01:25 | 36.81058 | -76.94451 | 11762 ft | 413 kts | 158° |
| 2026-04-22 01:26 | 36.78407 | -76.93098 | 11101 ft | 411 kts | 157° |
| 2026-04-22 01:26 | 36.75969 | -76.91287 | 10451 ft | 407 kts | 138° |
| 2026-04-22 01:26 | 36.74198 | -76.88732 | 9775 ft | 384 kts | 118° |
| 2026-04-22 01:26 | 36.73267 | -76.85746 | 9118 ft | 359 kts | 96° |
| 2026-04-22 01:27 | 36.73272 | -76.82772 | 8616 ft | 331 kts | 72° |
| 2026-04-22 01:27 | 36.74126 | -76.80267 | 8198 ft | 302 kts | 48° |
| 2026-04-22 01:27 | 36.75471 | -76.78369 | 7777 ft | 285 kts | 40° |
| 2026-04-22 01:27 | 36.76842 | -76.76644 | 7364 ft | 277 kts | 39° |
| 2026-04-22 01:28 | 36.78210 | -76.74952 | 6962 ft | 277 kts | 39° |
| 2026-04-22 01:28 | 36.79590 | -76.73264 | 6536 ft | 279 kts | 39° |
| 2026-04-22 01:28 | 36.80990 | -76.71568 | 6113 ft | 281 kts | 39° |
| 2026-04-22 01:28 | 36.82378 | -76.69897 | 6005 ft | 274 kts | 39° |
| 2026-04-22 01:29 | 36.83753 | -76.68243 | 6014 ft | 275 kts | 39° |
| 2026-04-22 01:29 | 36.85138 | -76.66581 | 6015 ft | 276 kts | 39° |
| 2026-04-22 01:29 | 36.86519 | -76.64920 | 6013 ft | 276 kts | 39° |
| 2026-04-22 01:29 | 36.87903 | -76.63258 | 6017 ft | 276 kts | 39° |
| 2026-04-22 01:30 | 36.89289 | -76.61595 | 5889 ft | 278 kts | 39° |
| 2026-04-22 01:30 | 36.90675 | -76.59935 | 5665 ft | 275 kts | 39° |
| 2026-04-22 01:30 | 36.92054 | -76.58288 | 5428 ft | 274 kts | 39° |
| 2026-04-22 01:30 | 36.93435 | -76.56649 | 5216 ft | 274 kts | 39° |
| 2026-04-22 01:31 | 36.94817 | -76.55015 | 4994 ft | 274 kts | 39° |
| 2026-04-22 01:31 | 36.96207 | -76.53385 | 4730 ft | 274 kts | 39° |
| 2026-04-22 01:31 | 36.97609 | -76.51763 | 4443 ft | 275 kts | 39° |
| 2026-04-22 01:31 | 36.99026 | -76.50155 | 4165 ft | 275 kts | 39° |
| 2026-04-22 01:32 | 36.99957 | -76.49102 | 3979 ft | 274 kts | 39° |
| 2026-04-22 01:32 | 37.01380 | -76.47489 | 3690 ft | 274 kts | 39° |
| 2026-04-22 01:32 | 37.02805 | -76.45897 | 3309 ft | 276 kts | 39° |
| 2026-04-22 01:32 | 37.04249 | -76.44308 | 3003 ft | 274 kts | 39° |
| 2026-04-22 01:33 | 37.05685 | -76.42743 | 2990 ft | 275 kts | 39° |
| 2026-04-22 01:33 | 37.07135 | -76.41165 | 2993 ft | 276 kts | 39° |
| 2026-04-22 01:33 | 37.08581 | -76.39590 | 2995 ft | 276 kts | 39° |
| 2026-04-22 01:33 | 37.10034 | -76.38012 | 2995 ft | 276 kts | 39° |
| 2026-04-22 01:34 | 37.11486 | -76.36434 | 2995 ft | 276 kts | 39° |
| 2026-04-22 01:34 | 37.12936 | -76.34860 | 2988 ft | 276 kts | 39° |
| 2026-04-22 01:34 | 37.14389 | -76.33283 | 2996 ft | 276 kts | 39° |
| 2026-04-22 01:34 | 37.15839 | -76.31705 | 3000 ft | 276 kts | 39° |
| 2026-04-22 01:35 | 37.17298 | -76.30128 | 2997 ft | 278 kts | 39° |
| 2026-04-22 01:35 | 37.18650 | -76.28394 | 2988 ft | 280 kts | 57° |
| 2026-04-22 01:35 | 37.19300 | -76.26125 | 2998 ft | 277 kts | 87° |
| 2026-04-22 01:35 | 37.19048 | -76.23778 | 2997 ft | 270 kts | 117° |
| 2026-04-22 01:36 | 37.18129 | -76.21748 | 2994 ft | 268 kts | 128° |
| 2026-04-22 01:36 | 37.17083 | -76.19810 | 3005 ft | 268 kts | 129° |
| 2026-04-22 01:36 | 37.16027 | -76.17891 | 3004 ft | 265 kts | 129° |
| 2026-04-22 01:36 | 37.15011 | -76.16037 | 2999 ft | 251 kts | 129° |
| 2026-04-22 01:37 | 37.14058 | -76.14290 | 3003 ft | 235 kts | 129° |
| 2026-04-22 01:37 | 37.13154 | -76.12654 | 2996 ft | 223 kts | 129° |
| 2026-04-22 01:37 | 37.12275 | -76.11080 | 3000 ft | 219 kts | 128° |
| 2026-04-22 01:37 | 37.11410 | -76.09524 | 3007 ft | 217 kts | 129° |
| 2026-04-22 01:38 | 37.10541 | -76.07977 | 3003 ft | 216 kts | 129° |
| 2026-04-22 01:38 | 37.09675 | -76.06437 | 3018 ft | 217 kts | 129° |
| 2026-04-22 01:38 | 37.08794 | -76.04905 | 3023 ft | 216 kts | 136° |
| 2026-04-22 01:38 | 37.07620 | -76.03829 | 2931 ft | 206 kts | 164° |
| 2026-04-22 01:39 | 37.06281 | -76.03571 | 2815 ft | 187 kts | 190° |
| 2026-04-22 01:39 | 37.05106 | -76.04020 | 2652 ft | 170 kts | 212° |
| 2026-04-22 01:39 | 37.04241 | -76.04865 | 2492 ft | 147 kts | 222° |
| 2026-04-22 01:39 | 37.03514 | -76.05651 | 2356 ft | 133 kts | 221° |
| 2026-04-22 01:40 | 37.02822 | -76.06398 | 2216 ft | 129 kts | 220° |
| 2026-04-22 01:40 | 37.02142 | -76.07131 | 2116 ft | 128 kts | 219° |
| 2026-04-22 01:40 | 37.01467 | -76.07859 | 2007 ft | 127 kts | 219° |
| 2026-04-22 01:40 | 37.00790 | -76.08589 | 1898 ft | 128 kts | 219° |
| 2026-04-22 01:41 | 37.00117 | -76.09314 | 1797 ft | 126 kts | 218° |
| 2026-04-22 01:41 | 36.99464 | -76.10019 | 1726 ft | 126 kts | 217° |
| 2026-04-22 01:41 | 36.98793 | -76.10743 | 1658 ft | 129 kts | 218° |
| 2026-04-22 01:41 | 36.98123 | -76.11466 | 1616 ft | 125 kts | 216° |
| 2026-04-22 01:42 | 36.97466 | -76.12175 | 1618 ft | 125 kts | 217° |
| 2026-04-22 01:42 | 36.96799 | -76.12893 | 1610 ft | 126 kts | 216° |
| 2026-04-22 01:42 | 36.96107 | -76.13569 | 1469 ft | 127 kts | 214° |
| 2026-04-22 01:42 | 36.95405 | -76.14244 | 1285 ft | 126 kts | 213° |
| 2026-04-22 01:43 | 36.94712 | -76.14911 | 1108 ft | 127 kts | 213° |
| 2026-04-22 01:43 | 36.94020 | -76.15579 | 937 ft | 127 kts | 213° |
| 2026-04-22 01:43 | 36.93306 | -76.16266 | 764 ft | 128 kts | 212° |
| 2026-04-22 01:43 | 36.92612 | -76.16942 | 577 ft | 124 kts | 214° |
| 2026-04-22 01:44 | 36.91934 | -76.17608 | 358 ft | 126 kts | 214° |
| 2026-04-22 01:44 | 36.91238 | -76.18273 | 253 ft | 126 kts | 213° |
| 2026-04-22 01:44 | 36.90544 | -76.18938 | 62 ft | 125 kts | 213° |
| 2026-04-22 01:44 | 36.89905 | -76.19567 | 16 ft | 104 kts | 214° |
| 2026-04-22 01:45 | 36.89590 | -76.19864 | 7 ft | 23 kts | 220° |
| 2026-04-22 01:45 | 36.89445 | -76.20016 | 11 ft | 27 kts | 238° |
| 2026-04-22 01:45 | 36.89458 | -76.20163 | 4 ft | 3 kts | 321° |
| 2026-04-22 01:46 | 36.89472 | -76.20171 | 4 ft | 8 kts | 335° |
| 2026-04-22 01:46 | 36.89525 | -76.20227 | 3 ft | 0 kts | 330° |
| 2026-04-22 01:47 | 36.89525 | -76.20226 | 3 ft | 0 kts | 332° |
| 2026-04-22 01:47 | 36.89543 | -76.20225 | 4 ft | 7 kts | 6° |
| 2026-04-22 01:47 | 36.89591 | -76.20208 | 3 ft | 1 kts | 18° |
| 2026-04-22 01:48 | 36.89593 | -76.20207 | 3 ft | 0 kts | 18° |